Time;durP1;ratioP1;P1;durP2;ratioP2;P2;SDS_P1;SDS_P2;PMS_P1;PMS_P2;Temp;Humidity;BMP_temperature;BMP_pressure;BME280_temperature;BME280_humidity;BME280_pressure;Samples;Min_cycle;Max_cycle;Signal;HPM_P1;HPM_P2
2021/04/15 00:01:02;;;;;;;0.95;0.40;;;14.70;52.40;;;;;;4956509;29;20027;-38
2021/04/15 00:03:30;;;;;;;1.48;0.60;;;14.60;52.30;;;;;;4956090;29;20110;-39
2021/04/15 00:06:04;;;;;;;1.13;0.50;;;14.80;52.50;;;;;;4956516;29;20102;-39
2021/04/15 00:08:29;;;;;;;4.03;0.70;;;14.80;52.50;;;;;;4956131;29;20466;-39
2021/04/15 00:10:57;;;;;;;1.48;0.70;;;14.60;52.40;;;;;;4956348;29;20028;-39
2021/04/15 00:13:29;;;;;;;2.08;0.57;;;14.80;52.50;;;;;;4955940;29;20051;-39
2021/04/15 00:15:55;;;;;;;1.45;0.70;;;14.70;52.30;;;;;;4956386;29;20081;-39
2021/04/15 00:18:21;;;;;;;1.05;0.40;;;14.80;52.60;;;;;;4956319;29;20383;-39
2021/04/15 00:20:47;;;;;;;0.55;0.50;;;14.50;52.40;;;;;;4956134;29;20034;-38
2021/04/15 00:23:13;;;;;;;1.30;0.60;;;15.30;52.80;;;;;;4956103;29;20039;-39
2021/04/15 00:25:39;;;;;;;1.00;0.50;;;14.70;52.50;;;;;;4955796;28;20046;-39
2021/04/15 00:28:05;;;;;;;1.30;0.55;;;14.60;52.40;;;;;;4955155;29;20467;-39
2021/04/15 00:30:31;;;;;;;0.77;0.60;;;14.70;52.50;;;;;;4956071;29;20023;-37
2021/04/15 00:32:57;;;;;;;1.42;0.65;;;15.30;52.80;;;;;;4955682;29;20083;-38
2021/04/15 00:35:22;;;;;;;2.15;0.90;;;14.60;52.50;;;;;;4955670;29;20135;-37
2021/04/15 00:37:49;;;;;;;1.33;0.65;;;14.60;52.50;;;;;;4955881;29;20024;-38
2021/04/15 00:40:18;;;;;;;2.60;0.85;;;14.90;52.60;;;;;;4955890;29;20015;-39
2021/04/15 00:42:43;;;;;;;0.82;0.50;;;14.70;52.50;;;;;;4955834;29;20599;-38
2021/04/15 00:45:24;;;;;;;1.35;0.77;;;14.50;52.50;;;;;;4955757;29;20102;-38
2021/04/15 00:48:16;;;;;;;1.02;0.40;;;14.60;52.40;;;;;;4955851;29;20106;-38
2021/04/15 00:50:50;;;;;;;1.30;0.70;;;14.50;52.50;;;;;;4944979;28;20114;-38
2021/04/15 00:53:21;;;;;;;0.95;0.57;;;14.40;52.40;;;;;;4955758;29;20428;-39
2021/04/15 00:55:48;;;;;;;1.50;0.50;;;14.60;52.60;;;;;;4955641;29;20042;-39
2021/04/15 00:58:14;;;;;;;2.15;0.73;;;14.60;52.50;;;;;;4955271;29;20499;-39
2021/04/15 01:00:40;;;;;;;1.40;0.90;;;14.60;53.10;;;;;;4955138;29;20028;-39
2021/04/15 01:03:06;;;;;;;1.08;0.80;;;14.40;52.40;;;;;;4955226;29;20029;-39
2021/04/15 01:05:38;;;;;;;1.00;0.47;;;14.40;52.40;;;;;;4955465;29;20071;-39
2021/04/15 01:08:04;;;;;;;1.75;0.60;;;14.50;52.50;;;;;;4955151;29;20031;-38
2021/04/15 01:10:36;;;;;;;1.25;0.52;;;14.50;52.50;;;;;;4955367;29;20167;-38
2021/04/15 01:13:19;;;;;;;1.35;0.60;;;14.50;52.50;;;;;;4954851;29;20533;-39
2021/04/15 01:15:59;;;;;;;1.05;0.43;;;14.50;52.40;;;;;;4955154;29;20035;-39
2021/04/15 01:18:49;;;;;;;1.38;0.52;;;14.50;52.60;;;;;;4955162;29;20034;-40
2021/04/15 01:21:46;;;;;;;1.38;0.50;;;14.50;52.50;;;;;;4955231;29;20079;-38
2021/04/15 01:24:32;;;;;;;2.63;0.65;;;14.50;52.50;;;;;;4955203;29;20538;-39
2021/04/15 01:27:46;;;;;;;1.63;0.65;;;14.50;52.50;;;;;;4955124;29;20030;-39
2021/04/15 01:30:32;;;;;;;1.92;0.40;;;14.50;52.50;;;;;;4928893;29;20573;-38
2021/04/15 01:33:13;;;;;;;0.95;0.60;;;14.50;52.50;;;;;;4954975;29;20398;-39
2021/04/15 01:35:52;;;;;;;1.58;0.68;;;14.40;52.50;;;;;;4937409;29;20047;-40
2021/04/15 01:38:27;;;;;;;1.40;0.53;;;14.40;52.40;;;;;;4954782;28;20027;-40
2021/04/15 01:41:01;;;;;;;1.90;0.80;;;14.40;52.50;;;;;;4954735;29;20031;-40
2021/04/15 01:43:30;;;;;;;1.25;0.43;;;14.40;52.50;;;;;;4954631;29;20027;-40
2021/04/15 01:45:58;;;;;;;1.65;0.57;;;14.30;52.40;;;;;;4954722;29;20031;-40
2021/04/15 01:48:27;;;;;;;1.00;0.55;;;14.40;52.50;;;;;;4954632;29;20041;-40
2021/04/15 01:51:01;;;;;;;1.83;0.50;;;14.90;52.80;;;;;;4954693;28;20382;-40
2021/04/15 01:53:39;;;;;;;4.55;0.50;;;14.30;52.50;;;;;;4954598;29;20053;-40
2021/04/15 01:56:16;;;;;;;1.52;0.60;;;14.20;52.40;;;;;;4954362;29;20071;-40
2021/04/15 01:58:52;;;;;;;1.38;0.75;;;14.30;52.40;;;;;;4954632;29;20033;-40
2021/04/15 02:01:21;;;;;;;0.90;0.60;;;14.30;52.50;;;;;;4954243;29;20477;-40
2021/04/15 02:03:53;;;;;;;1.37;0.50;;;14.30;52.50;;;;;;4954748;29;20032;-40
2021/04/15 02:06:26;;;;;;;1.70;0.40;;;14.30;52.50;;;;;;4954375;29;20806;-40
2021/04/15 02:09:04;;;;;;;2.00;0.70;;;14.30;52.50;;;;;;4954515;29;20031;-40
2021/04/15 02:11:39;;;;;;;1.17;0.40;;;14.20;52.50;;;;;;4954447;29;20075;-40
2021/04/15 02:14:06;;;;;;;0.50;0.40;;;14.30;52.50;;;;;;4953945;29;20043;-40
2021/04/15 02:16:34;;;;;;;0.73;0.40;;;14.30;52.50;;;;;;4954378;29;20031;-41
2021/04/15 02:19:07;;;;;;;1.45;0.65;;;14.30;52.50;;;;;;4954304;29;20035;-39
2021/04/15 02:21:48;;;;;;;1.88;0.52;;;14.30;52.50;;;;;;4954245;29;20038;-40
2021/04/15 02:24:43;;;;;;;1.35;0.68;;;14.20;52.50;;;;;;4954372;29;20134;-40
2021/04/15 02:27:32;;;;;;;3.28;0.70;;;14.30;52.40;;;;;;4954294;29;20106;-40
2021/04/15 02:30:07;;;;;;;0.82;0.50;;;14.20;52.50;;;;;;4954121;29;20039;-40
2021/04/15 02:32:41;;;;;;;1.98;0.88;;;14.20;52.50;;;;;;4953797;29;20569;-40
2021/04/15 02:35:22;;;;;;;1.40;0.68;;;14.10;52.50;;;;;;4954092;29;20390;-40
2021/04/15 02:37:52;;;;;;;1.50;0.50;;;14.20;52.40;;;;;;4953802;29;20087;-40
2021/04/15 02:40:26;;;;;;;1.75;0.40;;;14.10;52.40;;;;;;4954157;29;20031;-40
2021/04/15 02:42:54;;;;;;;0.75;0.50;;;14.20;52.40;;;;;;4953983;29;20027;-40
2021/04/15 02:45:36;;;;;;;0.93;0.82;;;14.20;52.40;;;;;;4953715;29;20493;-40
2021/04/15 02:48:15;;;;;;;1.23;0.60;;;14.20;52.30;;;;;;4953620;29;20549;-40
2021/04/15 02:50:43;;;;;;;1.80;0.60;;;14.10;52.40;;;;;;4956258;28;20027;-40
2021/04/15 02:53:17;;;;;;;0.80;0.47;;;14.10;52.40;;;;;;4957817;29;20055;-40
2021/04/15 02:56:02;;;;;;;1.58;0.73;;;14.20;52.40;;;;;;4957812;29;20039;-40
2021/04/15 02:58:35;;;;;;;3.58;0.80;;;14.10;52.50;;;;;;4950346;29;20070;-40
2021/04/15 03:01:03;;;;;;;1.60;0.40;;;14.00;52.40;;;;;;4957815;29;20073;-40
2021/04/15 03:03:35;;;;;;;0.80;0.65;;;14.10;52.40;;;;;;4957532;29;20082;-40
2021/04/15 03:06:09;;;;;;;1.13;0.60;;;14.10;52.40;;;;;;4957706;29;20027;-40
2021/04/15 03:08:37;;;;;;;1.08;0.60;;;14.10;52.40;;;;;;4957345;29;20030;-40
2021/04/15 03:11:08;;;;;;;2.40;0.65;;;14.10;52.50;;;;;;4957617;29;20030;-40
2021/04/15 03:13:45;;;;;;;1.05;0.70;;;14.00;52.40;;;;;;4957077;29;20043;-39
2021/04/15 03:16:14;;;;;;;1.38;0.68;;;14.00;52.30;;;;;;4957528;29;20038;-40
2021/04/15 03:19:10;;;;;;;0.90;0.50;;;14.10;52.50;;;;;;4957412;29;20033;-40
2021/04/15 03:21:59;;;;;;;2.28;0.60;;;14.00;52.40;;;;;;4957425;29;20110;-39
2021/04/15 03:24:40;;;;;;;1.58;0.70;;;14.00;52.50;;;;;;4938146;29;20039;-39
2021/04/15 03:27:38;;;;;;;1.17;0.47;;;14.00;52.30;;;;;;4957338;29;20098;-38
2021/04/15 03:30:12;;;;;;;1.65;0.50;;;14.50;52.60;;;;;;4956352;29;20102;-39
2021/04/15 03:32:40;;;;;;;1.58;0.73;;;14.00;52.30;;;;;;4957180;29;20419;-41
2021/04/15 03:35:20;;;;;;;1.42;0.63;;;14.00;53.00;;;;;;4957049;29;20043;-40
2021/04/15 03:38:18;;;;;;;2.03;0.70;;;14.00;52.30;;;;;;4957095;29;20397;-40
2021/04/15 03:40:47;;;;;;;1.77;0.60;;;13.80;52.40;;;;;;4949521;29;20050;-40
2021/04/15 03:43:22;;;;;;;2.33;0.93;;;13.90;52.40;;;;;;4957042;29;20180;-39
2021/04/15 03:46:00;;;;;;;1.38;0.63;;;13.90;52.40;;;;;;4956735;29;20034;-40
2021/04/15 03:48:32;;;;;;;0.95;0.50;;;13.90;52.40;;;;;;4956831;29;20051;-40
2021/04/15 03:51:03;;;;;;;1.40;0.60;;;13.90;51.90;;;;;;4956798;28;20026;-39
2021/04/15 03:53:50;;;;;;;0.98;0.50;;;13.90;52.30;;;;;;4956714;29;20059;-40
2021/04/15 03:56:24;;;;;;;1.58;1.02;;;13.90;52.40;;;;;;4956776;29;20023;-40
2021/04/15 03:59:00;;;;;;;0.55;0.55;;;13.80;52.30;;;;;;4956794;29;20023;-39
2021/04/15 04:01:30;;;;;;;2.30;0.70;;;13.90;52.30;;;;;;4956207;28;20503;-39
2021/04/15 04:04:03;;;;;;;1.17;0.77;;;13.90;52.40;;;;;;4956676;29;20078;-40
2021/04/15 04:06:31;;;;;;;2.28;0.70;;;13.90;52.30;;;;;;4956509;29;20042;-40
2021/04/15 04:09:04;;;;;;;1.08;0.52;;;13.90;53.00;;;;;;4956413;29;20039;-40
2021/04/15 04:11:34;;;;;;;0.75;0.50;;;13.90;52.40;;;;;;4956148;29;20079;-40
2021/04/15 04:14:04;;;;;;;1.58;0.63;;;13.80;52.40;;;;;;4955889;29;20035;-39
2021/04/15 04:16:47;;;;;;;0.60;0.55;;;14.30;52.60;;;;;;4956340;29;20031;-40
2021/04/15 04:20:03;;;;;;;3.05;0.70;;;13.80;52.40;;;;;;4956284;29;20042;-39
2021/04/15 04:22:51;;;;;;;1.13;0.55;;;13.80;52.30;;;;;;4938949;29;20101;-40
2021/04/15 04:25:40;;;;;;;1.67;0.50;;;13.80;52.40;;;;;;4955903;29;20075;-40
2021/04/15 04:28:14;;;;;;;0.68;0.50;;;13.90;52.40;;;;;;4949355;29;20039;-40
2021/04/15 04:30:55;;;;;;;1.67;0.70;;;13.90;52.40;;;;;;4955811;29;20027;-40
2021/04/15 04:33:27;;;;;;;1.88;0.50;;;13.80;52.40;;;;;;4956037;29;20373;-40
2021/04/15 04:35:57;;;;;;;1.17;0.60;;;13.60;52.30;;;;;;4955923;29;20035;-40
2021/04/15 04:38:23;;;;;;;1.27;0.60;;;13.80;52.40;;;;;;4955973;29;20497;-40
2021/04/15 04:40:55;;;;;;;2.17;0.52;;;13.80;52.40;;;;;;4955976;29;20031;-39
2021/04/15 04:43:44;;;;;;;1.27;0.75;;;13.80;52.40;;;;;;4955534;29;20039;-43
2021/04/15 04:46:19;;;;;;;2.20;0.60;;;13.80;52.40;;;;;;4955390;29;20028;-40
2021/04/15 04:48:53;;;;;;;2.15;0.70;;;13.80;52.30;;;;;;4955489;29;20039;-40
2021/04/15 04:51:21;;;;;;;3.08;0.80;;;13.80;52.40;;;;;;4955643;28;20034;-40
2021/04/15 04:53:51;;;;;;;1.90;0.70;;;13.70;52.50;;;;;;4955600;29;20117;-40
2021/04/15 04:56:26;;;;;;;1.20;0.53;;;13.70;52.50;;;;;;4955617;29;20368;-40
2021/04/15 04:59:01;;;;;;;1.30;0.60;;;13.80;52.50;;;;;;4955569;29;20358;-39
2021/04/15 05:01:27;;;;;;;3.50;0.65;;;13.80;52.60;;;;;;4955555;29;20446;-40
2021/04/15 05:04:00;;;;;;;1.02;0.63;;;13.80;52.70;;;;;;4955418;29;20031;-39
2021/04/15 05:06:32;;;;;;;1.58;0.80;;;13.70;53.30;;;;;;4955374;29;20031;-40
2021/04/15 05:09:06;;;;;;;0.93;0.40;;;13.80;53.10;;;;;;4955172;29;20042;-40
2021/04/15 05:11:35;;;;;;;1.30;0.50;;;14.00;53.10;;;;;;4955403;29;20027;-39
2021/04/15 05:14:02;;;;;;;0.40;0.30;;;14.10;52.90;;;;;;4954059;28;20329;-40
2021/04/15 05:16:34;;;;;;;0.98;0.40;;;14.20;52.70;;;;;;4955234;29;20028;-40
2021/04/15 05:18:59;;;;;;;0.98;0.57;;;14.30;52.50;;;;;;4954914;29;20035;-40
2021/04/15 05:21:26;;;;;;;1.30;0.88;;;14.60;52.30;;;;;;4954881;29;20027;-39
2021/04/15 05:24:12;;;;;;;2.00;0.80;;;14.70;52.10;;;;;;4954752;29;20031;-40
2021/04/15 05:26:41;;;;;;;2.35;0.70;;;14.90;51.80;;;;;;4954903;29;20067;-40
2021/04/15 05:29:16;;;;;;;1.40;0.50;;;15.00;51.50;;;;;;4954697;29;20103;-40
2021/04/15 05:31:44;;;;;;;1.35;0.52;;;15.10;51.30;;;;;;4954963;29;20035;-40
2021/04/15 05:34:21;;;;;;;1.25;0.50;;;15.00;51.30;;;;;;4954715;29;20035;-40
2021/04/15 05:36:48;;;;;;;1.38;0.60;;;15.00;51.40;;;;;;4954912;29;20031;-40
2021/04/15 05:39:17;;;;;;;0.73;0.73;;;15.60;51.70;;;;;;4954795;29;20079;-40
2021/04/15 05:41:58;;;;;;;1.33;0.60;;;14.90;51.20;;;;;;4954568;29;20110;-40
2021/04/15 05:44:39;;;;;;;1.63;0.47;;;15.20;51.10;;;;;;4954498;29;20525;-40
2021/04/15 05:47:13;;;;;;;1.33;0.40;;;15.30;50.90;;;;;;4954793;29;20035;-40
2021/04/15 05:49:46;;;;;;;1.50;0.52;;;15.50;76.40;;;;;;4954697;28;20019;-40
2021/04/15 05:52:27;;;;;;;2.20;0.77;;;15.40;50.80;;;;;;4954761;29;20042;-40
2021/04/15 05:54:59;;;;;;;2.90;0.80;;;15.60;50.70;;;;;;4954445;29;20042;-40
2021/04/15 05:57:28;;;;;;;0.77;0.60;;;15.70;50.80;;;;;;4954568;29;20023;-40
2021/04/15 06:00:09;;;;;;;1.47;0.60;;;15.70;50.60;;;;;;4954326;29;20065;-40
2021/04/15 06:02:46;;;;;;;1.83;0.60;;;15.70;50.30;;;;;;4937289;29;20474;-40
2021/04/15 06:05:25;;;;;;;0.68;0.52;;;15.80;49.90;;;;;;4954229;29;20034;-40
2021/04/15 06:07:54;;;;;;;3.22;0.65;;;16.00;49.60;;;;;;4954460;29;20382;-40
2021/04/15 06:10:24;;;;;;;0.85;0.40;;;15.90;49.60;;;;;;4954361;29;20027;-41
2021/04/15 06:13:10;;;;;;;1.30;0.40;;;16.00;49.50;;;;;;4936733;29;20487;-39
2021/04/15 06:15:51;;;;;;;1.23;0.70;;;16.10;49.40;;;;;;4954080;29;20078;-40
2021/04/15 06:18:24;;;;;;;1.88;0.88;;;16.20;49.40;;;;;;4954420;29;20085;-40
2021/04/15 06:20:59;;;;;;;0.95;0.45;;;16.10;49.40;;;;;;4954043;29;20500;-40
2021/04/15 06:23:43;;;;;;;3.47;0.90;;;16.10;49.20;;;;;;4953808;28;20497;-41
2021/04/15 06:26:38;;;;;;;0.35;0.30;;;15.90;49.60;;;;;;4953457;29;20035;-40
2021/04/15 06:29:09;;;;;;;1.33;0.55;;;16.00;49.70;;;;;;4948255;29;20055;-40
2021/04/15 06:31:43;;;;;;;3.35;0.70;;;15.80;50.00;;;;;;4954202;29;20024;-40
2021/04/15 06:34:09;;;;;;;4.78;0.93;;;15.80;50.30;;;;;;4954066;29;20738;-40
2021/04/15 06:36:41;;;;;;;1.98;0.55;;;15.80;50.30;;;;;;4954129;29;20028;-39
2021/04/15 06:39:28;;;;;;;7.18;0.82;;;15.80;50.30;;;;;;4953998;29;20023;-40
2021/04/15 06:42:03;;;;;;;5.78;0.60;;;16.20;50.70;;;;;;4953837;29;20023;-40
2021/04/15 06:45:00;;;;;;;3.63;0.70;;;15.80;50.60;;;;;;4953806;29;20054;-40
2021/04/15 06:48:03;;;;;;;5.80;1.20;;;15.70;50.50;;;;;;4953151;29;20028;-41
2021/04/15 06:50:32;;;;;;;3.83;0.98;;;15.70;50.60;;;;;;4953869;28;20032;-40
2021/04/15 06:53:25;;;;;;;5.22;1.00;;;15.50;50.70;;;;;;4953871;29;20019;-40
2021/04/15 06:56:22;;;;;;;2.00;0.70;;;15.70;50.70;;;;;;4954039;29;20065;-40
2021/04/15 06:59:19;;;;;;;3.75;0.70;;;15.70;50.80;;;;;;4953808;29;20019;-40
2021/04/15 07:02:01;;;;;;;4.97;0.77;;;15.70;50.80;;;;;;4953789;29;20027;-40
2021/04/15 07:04:30;;;;;;;3.17;0.95;;;15.70;50.80;;;;;;4953888;29;20027;-40
2021/04/15 07:07:34;;;;;;;5.53;0.60;;;15.50;50.90;;;;;;4953701;29;20028;-40
2021/04/15 07:10:22;;;;;;;2.42;0.70;;;15.60;50.90;;;;;;4951483;29;20449;-40
2021/04/15 07:13:12;;;;;;;7.97;0.88;;;15.70;50.90;;;;;;4953245;29;20058;-38
2021/04/15 07:15:50;;;;;;;2.75;0.65;;;15.70;50.90;;;;;;4953370;29;20521;-38
2021/04/15 07:18:47;;;;;;;2.47;0.50;;;15.50;50.80;;;;;;4953642;29;20027;-40
2021/04/15 07:21:44;;;;;;;1.10;0.70;;;15.70;50.80;;;;;;4953360;29;20038;-40
2021/04/15 07:24:28;;;;;;;2.05;0.55;;;15.70;50.70;;;;;;4953595;29;20027;-39
2021/04/15 07:27:32;;;;;;;1.38;0.70;;;15.70;50.80;;;;;;4953683;29;20035;-39
2021/04/15 07:30:11;;;;;;;2.22;0.82;;;15.70;50.80;;;;;;4931117;29;20434;-39
2021/04/15 07:32:39;;;;;;;1.73;0.60;;;15.60;50.90;;;;;;4953328;29;20075;-39
2021/04/15 07:35:16;;;;;;;1.58;0.68;;;15.70;50.90;;;;;;4953448;28;20079;-39
2021/04/15 07:37:52;;;;;;;1.55;0.50;;;15.70;50.70;;;;;;4957024;29;20024;-39
2021/04/15 07:40:17;;;;;;;2.28;0.77;;;15.40;50.60;;;;;;4956706;29;20383;-39
2021/04/15 07:43:30;;;;;;;2.70;0.50;;;15.70;50.80;;;;;;4957071;29;20102;-39
2021/04/15 07:45:58;;;;;;;2.05;0.65;;;15.70;50.70;;;;;;4916207;29;20115;-39
2021/04/15 07:48:52;;;;;;;1.38;0.68;;;15.70;50.70;;;;;;4951965;29;20039;-39
2021/04/15 07:51:42;;;;;;;2.17;0.70;;;15.80;50.60;;;;;;4956900;28;20050;-40
2021/04/15 07:54:26;;;;;;;1.75;0.60;;;15.80;50.70;;;;;;4956747;29;20038;-39
2021/04/15 07:57:19;;;;;;;1.85;0.50;;;15.70;50.80;;;;;;4956529;29;20130;-39
2021/04/15 08:00:01;;;;;;;0.88;0.32;;;15.80;50.70;;;;;;4956765;29;20031;-39
2021/04/15 08:02:47;;;;;;;1.27;0.50;;;15.80;50.60;;;;;;4956707;29;20098;-40
2021/04/15 08:05:28;;;;;;;3.40;0.80;;;15.80;50.70;;;;;;4956568;29;20032;-40
2021/04/15 08:08:26;;;;;;;1.05;0.65;;;15.80;50.60;;;;;;4956446;29;20035;-39
2021/04/15 08:11:19;;;;;;;0.95;0.60;;;15.90;50.50;;;;;;4956195;29;20031;-39
2021/04/15 08:14:03;;;;;;;1.17;0.60;;;15.80;50.40;;;;;;4956145;29;20131;-39
2021/04/15 08:16:53;;;;;;;2.00;0.60;;;15.80;50.50;;;;;;4956112;29;20031;-39
2021/04/15 08:19:37;;;;;;;2.58;0.73;;;15.80;50.60;;;;;;4956229;29;20039;-40
2021/04/15 08:22:18;;;;;;;1.88;0.60;;;15.60;50.50;;;;;;4956333;29;20035;-39
2021/04/15 08:25:34;;;;;;;1.83;0.35;;;15.80;50.50;;;;;;4956044;29;20486;-40
2021/04/15 08:28:25;;;;;;;0.93;0.52;;;15.80;50.50;;;;;;4933666;29;20023;-39
2021/04/15 08:31:20;;;;;;;3.45;0.70;;;15.80;50.60;;;;;;4955875;29;20517;-40
2021/04/15 08:34:06;;;;;;;3.70;0.60;;;15.80;50.60;;;;;;4956064;29;20492;-40
2021/04/15 08:36:45;;;;;;;2.38;0.50;;;15.80;50.50;;;;;;4956083;29;20039;-40
2021/04/15 08:39:35;;;;;;;1.48;0.65;;;15.70;50.60;;;;;;4956051;29;20051;-39
2021/04/15 08:42:10;;;;;;;0.77;0.45;;;15.70;50.60;;;;;;4955972;29;20035;-40
2021/04/15 08:45:04;;;;;;;1.55;0.57;;;15.70;51.00;;;;;;4955876;29;20457;-40
2021/04/15 08:47:32;;;;;;;2.15;0.50;;;15.70;50.80;;;;;;4954902;28;20079;-39
2021/04/15 08:50:16;;;;;;;1.70;0.50;;;15.60;51.20;;;;;;4955706;28;20023;-40
2021/04/15 08:53:14;;;;;;;1.05;0.50;;;15.70;51.10;;;;;;4938122;29;20053;-40
2021/04/15 08:55:44;;;;;;;2.03;0.73;;;15.70;51.00;;;;;;4955693;29;20043;-39
2021/04/15 08:58:25;;;;;;;1.38;0.60;;;15.70;51.00;;;;;;4955643;29;20378;-40
2021/04/15 09:01:07;;;;;;;;;;;15.60;51.00;;;;;;4956358;29;20431;-40
2021/04/15 09:03:47;;;;;;;1.40;0.52;;;15.60;51.00;;;;;;4955616;29;19907;-39
2021/04/15 09:06:40;;;;;;;1.15;0.40;;;15.60;51.00;;;;;;4955818;29;20051;-40
2021/04/15 09:09:06;;;;;;;1.17;0.57;;;15.60;50.90;;;;;;4955197;29;20556;-40
2021/04/15 09:11:59;;;;;;;0.73;0.45;;;15.50;51.00;;;;;;4955452;29;20035;-40
2021/04/15 09:14:41;;;;;;;1.38;0.40;;;15.50;51.00;;;;;;4954892;29;20532;-40
2021/04/15 09:17:16;;;;;;;1.55;0.70;;;15.50;51.10;;;;;;4955339;29;20019;-40
2021/04/15 09:19:53;;;;;;;0.98;0.52;;;15.40;51.20;;;;;;4955008;29;20031;-40
2021/04/15 09:23:03;;;;;;;1.02;0.50;;;15.30;51.20;;;;;;4955030;29;20023;-40
2021/04/15 09:25:31;;;;;;;;;;;15.50;51.30;;;;;;4939444;29;20040;-40
2021/04/15 09:28:05;;;;;;;2.17;0.70;;;15.50;51.30;;;;;;4954807;29;19906;-39
2021/04/15 09:30:43;;;;;;;1.30;0.60;;;15.40;51.40;;;;;;4954979;29;20054;-39
2021/04/15 09:33:39;;;;;;;1.35;0.60;;;15.50;51.50;;;;;;4955046;29;20179;-40
2021/04/15 09:36:12;;;;;;;1.48;0.50;;;15.40;51.40;;;;;;4954652;29;20474;-39
2021/04/15 09:38:48;;;;;;;3.42;0.98;;;15.40;51.50;;;;;;4954733;29;20106;-40
2021/04/15 09:41:50;;;;;;;1.80;0.60;;;15.40;51.40;;;;;;4954614;29;20067;-40
2021/04/15 09:44:53;;;;;;;1.73;0.90;;;15.40;51.20;;;;;;4954561;29;20486;-40
2021/04/15 09:47:34;;;;;;;0.50;0.30;;;15.40;51.20;;;;;;4954874;29;20050;-40
2021/04/15 09:50:19;;;;;;;0.70;0.60;;;15.40;51.00;;;;;;4954449;28;20035;-40
2021/04/15 09:53:14;;;;;;;1.98;0.55;;;15.40;51.10;;;;;;4954331;29;20023;-39
2021/04/15 09:56:02;;;;;;;1.48;0.43;;;15.40;51.00;;;;;;4954646;29;20039;-39
2021/04/15 09:58:47;;;;;;;1.55;0.50;;;15.50;50.90;;;;;;4954443;28;20028;-40
2021/04/15 10:01:27;;;;;;;0.63;0.45;;;15.50;50.80;;;;;;4954361;29;20023;-40
2021/04/15 10:04:04;;;;;;;0.50;0.30;;;16.00;51.00;;;;;;4954578;29;20033;-40
2021/04/15 10:07:04;;;;;;;0.80;0.50;;;15.50;50.70;;;;;;4954502;29;20533;-40
2021/04/15 10:09:54;;;;;;;1.60;0.50;;;15.60;51.00;;;;;;4947187;29;20035;-40
2021/04/15 10:13:05;;;;;;;0.77;0.40;;;15.60;50.70;;;;;;4954300;29;20036;-40
2021/04/15 10:15:47;;;;;;;1.05;0.70;;;15.70;50.60;;;;;;4954301;29;20050;-40
2021/04/15 10:18:31;;;;;;;0.75;0.40;;;15.70;50.50;;;;;;4954079;29;20038;-40
2021/04/15 10:21:34;;;;;;;1.13;0.38;;;15.80;50.20;;;;;;4954364;29;20035;-40
2021/04/15 10:24:16;;;;;;;0.80;0.40;;;15.90;50.00;;;;;;4954178;29;20434;-40
2021/04/15 10:27:09;;;;;;;2.20;0.40;;;15.90;50.00;;;;;;4936791;29;20542;-40
2021/04/15 10:30:15;;;;;;;0.80;0.40;;;16.00;49.90;;;;;;4954207;29;20031;-40
2021/04/15 10:33:38;;;;;;;1.15;0.30;;;16.10;49.80;;;;;;4953963;29;20031;-40
2021/04/15 10:36:28;;;;;;;3.72;0.75;;;16.10;49.60;;;;;;4913222;29;20032;-40
2021/04/15 10:39:28;;;;;;;1.17;0.50;;;16.10;49.60;;;;;;4952226;29;20075;-40
2021/04/15 10:42:18;;;;;;;1.10;0.50;;;16.10;49.50;;;;;;4954102;29;20023;-40
2021/04/15 10:45:02;;;;;;;0.85;0.40;;;16.10;49.60;;;;;;4954153;29;20083;-39
2021/04/15 10:47:46;;;;;;;0.93;0.52;;;16.10;49.50;;;;;;4954146;29;20406;-39
2021/04/15 10:50:22;;;;;;;0.38;0.30;;;16.50;49.90;;;;;;4953517;28;20035;-40
2021/04/15 10:53:02;;;;;;;3.88;0.60;;;15.70;49.50;;;;;;4953545;29;20065;-39
2021/04/15 10:55:34;;;;;;;0.93;0.32;;;15.90;49.60;;;;;;4953805;29;20141;-39
2021/04/15 10:58:37;;;;;;;1.33;0.30;;;15.90;49.60;;;;;;4953855;29;20027;-40
2021/04/15 11:01:26;;;;;;;0.50;0.40;;;16.00;49.60;;;;;;4953956;29;20035;-39
2021/04/15 11:03:54;;;;;;;1.13;0.30;;;16.00;49.60;;;;;;4953861;29;20434;-38
2021/04/15 11:06:51;;;;;;;0.80;0.25;;;15.90;49.50;;;;;;4953404;29;20486;-39
2021/04/15 11:09:34;;;;;;;0.90;0.20;;;16.00;49.60;;;;;;4945781;29;20035;-39
2021/04/15 11:12:17;;;;;;;0.98;0.38;;;16.00;49.30;;;;;;4956056;28;20479;-40
2021/04/15 11:14:43;;;;;;;0.77;0.40;;;16.00;49.30;;;;;;4957488;29;20103;-41
2021/04/15 11:17:31;;;;;;;2.33;0.43;;;15.90;49.40;;;;;;4957508;29;20561;-41
2021/04/15 11:20:08;;;;;;;0.75;0.30;;;15.90;49.90;;;;;;4957523;29;20059;-40
2021/04/15 11:22:37;;;;;;;0.32;0.20;;;15.80;49.20;;;;;;4957456;29;20027;-40
2021/04/15 11:25:28;;;;;;;1.00;0.40;;;15.90;49.30;;;;;;4957054;29;20529;-38
2021/04/15 11:27:56;;;;;;;0.82;0.40;;;15.90;49.20;;;;;;4957261;29;20039;-39
2021/04/15 11:30:36;;;;;;;0.70;0.32;;;15.80;49.00;;;;;;4957174;29;20058;-39
2021/04/15 11:33:05;;;;;;;0.73;0.30;;;15.90;49.10;;;;;;4956684;29;20035;-42
2021/04/15 11:35:31;;;;;;;0.73;0.50;;;15.90;49.10;;;;;;4956959;29;20035;-40
2021/04/15 11:38:19;;;;;;;0.43;0.38;;;15.70;48.90;;;;;;4956978;29;20490;-38
2021/04/15 11:40:47;;;;;;;2.70;0.43;;;15.80;49.00;;;;;;4956447;29;20066;-39
2021/04/15 11:43:16;;;;;;;0.85;0.30;;;15.90;49.00;;;;;;4956649;29;20020;-40
2021/04/15 11:45:41;;;;;;;0.63;0.30;;;15.90;49.40;;;;;;4956485;29;20039;-40
2021/04/15 11:48:18;;;;;;;0.55;0.30;;;16.20;49.70;;;;;;4956604;29;20026;-40
2021/04/15 11:50:46;;;;;;;0.40;0.20;;;15.90;49.30;;;;;;4956484;28;20494;-40
2021/04/15 11:53:53;;;;;;;0.45;0.30;;;16.00;49.60;;;;;;4956524;29;20110;-40
2021/04/15 11:56:33;;;;;;;1.52;0.57;;;16.00;49.40;;;;;;4956445;29;20067;-41
2021/04/15 11:59:30;;;;;;;2.23;0.20;;;16.10;49.40;;;;;;4957033;29;20027;-41
2021/04/15 12:02:14;;;;;;;1.05;0.30;;;16.10;49.50;;;;;;4956695;29;20323;-40
2021/04/15 12:04:39;;;;;;;0.50;0.30;;;16.10;49.60;;;;;;4956405;29;20034;-40
2021/04/15 12:07:17;;;;;;;2.70;0.30;;;16.20;49.50;;;;;;4956472;29;20023;-40
2021/04/15 12:09:44;;;;;;;2.22;0.35;;;16.10;49.60;;;;;;4956440;29;20437;-40
2021/04/15 12:12:32;;;;;;;0.82;0.30;;;16.20;49.00;;;;;;4956415;29;20035;-38
2021/04/15 12:14:58;;;;;;;0.90;0.20;;;16.40;49.00;;;;;;4956384;29;20239;-40
2021/04/15 12:17:43;;;;;;;0.47;0.30;;;16.50;49.10;;;;;;4956384;29;20030;-40
2021/04/15 12:20:17;;;;;;;1.95;0.25;;;16.60;48.80;;;;;;4955865;29;20051;-40
2021/04/15 12:23:01;;;;;;;4.70;0.52;;;16.70;48.90;;;;;;4956321;28;20493;-40
2021/04/15 12:25:34;;;;;;;0.30;0.30;;;16.80;48.70;;;;;;4956152;29;20090;-40
2021/04/15 12:28:35;;;;;;;0.30;0.20;;;16.90;48.50;;;;;;4956185;29;20028;-41
2021/04/15 12:31:17;;;;;;;0.32;0.30;;;17.00;48.30;;;;;;4955899;29;20041;-40
2021/04/15 12:34:04;;;;;;;0.68;0.20;;;17.10;48.30;;;;;;4956011;29;20028;-39
2021/04/15 12:36:34;;;;;;;0.40;0.20;;;17.10;48.30;;;;;;4938613;29;20491;-40
2021/04/15 12:39:14;;;;;;;0.75;0.30;;;17.00;48.40;;;;;;4956078;29;20039;-40
2021/04/15 12:41:40;;;;;;;0.65;0.30;;;17.10;48.50;;;;;;4955766;29;20031;-40
2021/04/15 12:44:14;;;;;;;1.65;0.20;;;17.20;48.30;;;;;;4955736;29;20115;-40
2021/04/15 12:46:42;;;;;;;3.17;0.43;;;17.10;48.10;;;;;;4955664;29;20027;-39
2021/04/15 12:49:11;;;;;;;1.77;0.28;;;17.10;48.30;;;;;;4955633;28;20050;-40
2021/04/15 12:51:42;;;;;;;2.42;0.30;;;17.00;48.70;;;;;;4955829;29;20019;-39
2021/04/15 12:54:12;;;;;;;6.05;0.65;;;17.70;48.00;;;;;;4955640;29;20031;-40
2021/04/15 12:56:47;;;;;;;4.82;0.70;;;17.00;47.90;;;;;;4955500;29;20438;-40
2021/04/15 12:59:24;;;;;;;1.67;0.47;;;17.20;48.10;;;;;;4955334;29;20106;-40
2021/04/15 13:01:51;;;;;;;3.83;0.60;;;17.30;48.10;;;;;;4955652;29;20057;-40
2021/04/15 13:04:22;;;;;;;4.97;0.30;;;17.70;48.20;;;;;;4955203;29;20066;-39
2021/04/15 13:07:00;;;;;;;3.35;0.30;;;17.30;48.00;;;;;;4955486;29;20020;-38
2021/04/15 13:09:29;;;;;;;0.55;0.30;;;17.30;48.10;;;;;;4955299;29;20392;-40
2021/04/15 13:11:55;;;;;;;3.53;0.50;;;17.10;48.00;;;;;;4955058;29;20055;-39
2021/04/15 13:14:41;;;;;;;1.80;0.60;;;17.60;48.20;;;;;;4954624;29;20142;-40
2021/04/15 13:17:10;;;;;;;3.28;0.40;;;17.30;48.00;;;;;;4954951;29;20031;-40
2021/04/15 13:19:39;;;;;;;2.22;0.40;;;17.30;48.20;;;;;;4954756;29;20489;-41
2021/04/15 13:22:20;;;;;;;5.40;0.77;;;17.10;48.10;;;;;;4954996;29;20042;-40
2021/04/15 13:24:48;;;;;;;2.15;0.45;;;17.20;48.20;;;;;;4954959;29;20037;-40
2021/04/15 13:27:36;;;;;;;1.27;0.43;;;17.30;48.30;;;;;;4954776;29;20035;-41
2021/04/15 13:30:20;;;;;;;3.08;0.80;;;17.20;48.10;;;;;;4954981;29;20569;-39
2021/04/15 13:33:16;;;;;;;2.60;0.25;;;18.00;48.60;;;;;;4954554;29;20031;-40
2021/04/15 13:36:03;;;;;;;0.73;0.30;;;17.40;48.20;;;;;;4954580;29;20066;-40
2021/04/15 13:41:02;;;;;;;1.15;0.30;;;17.20;48.40;;;;;;4954466;29;20031;-40
2021/04/15 13:43:55;;;;;;;2.38;0.30;;;17.30;48.80;;;;;;4954757;29;20019;-38
2021/04/15 13:46:24;;;;;;;1.30;0.28;;;17.40;48.90;;;;;;4954621;29;20106;-40
2021/04/15 13:49:12;;;;;;;0.90;0.30;;;17.20;48.70;;;;;;4954565;28;20090;-38
2021/04/15 13:51:52;;;;;;;1.83;0.20;;;17.40;48.50;;;;;;4954257;29;20032;-39